sensor_id;sensor_type;location;lat;lon;timestamp;temperature;humidity
72206;DHT22;60111;48.286;7.812;2023-08-30T00:01:00;13.10;88.10
72206;DHT22;60111;48.286;7.812;2023-08-30T00:03:32;13.00;87.70
72206;DHT22;60111;48.286;7.812;2023-08-30T00:06:04;13.00;87.70
72206;DHT22;60111;48.286;7.812;2023-08-30T00:08:36;13.20;87.00
72206;DHT22;60111;48.286;7.812;2023-08-30T00:11:08;13.20;86.60
72206;DHT22;60111;48.286;7.812;2023-08-30T00:13:40;13.20;86.50
72206;DHT22;60111;48.286;7.812;2023-08-30T00:16:13;13.10;86.90
72206;DHT22;60111;48.286;7.812;2023-08-30T00:18:46;13.00;87.80
72206;DHT22;60111;48.286;7.812;2023-08-30T00:21:18;13.10;88.30
72206;DHT22;60111;48.286;7.812;2023-08-30T00:23:50;13.00;87.90
72206;DHT22;60111;48.286;7.812;2023-08-30T00:26:22;13.00;87.60
72206;DHT22;60111;48.286;7.812;2023-08-30T00:28:54;12.90;88.10
72206;DHT22;60111;48.286;7.812;2023-08-30T00:31:25;12.90;88.70
72206;DHT22;60111;48.286;7.812;2023-08-30T00:33:57;13.00;89.00
72206;DHT22;60111;48.286;7.812;2023-08-30T00:36:29;13.00;89.20
72206;DHT22;60111;48.286;7.812;2023-08-30T00:39:02;13.10;89.20
72206;DHT22;60111;48.286;7.812;2023-08-30T00:41:34;13.00;89.20
72206;DHT22;60111;48.286;7.812;2023-08-30T00:44:06;13.00;89.20
72206;DHT22;60111;48.286;7.812;2023-08-30T00:46:38;13.00;89.30
72206;DHT22;60111;48.286;7.812;2023-08-30T00:49:10;13.00;89.20
72206;DHT22;60111;48.286;7.812;2023-08-30T00:51:42;13.00;88.90
72206;DHT22;60111;48.286;7.812;2023-08-30T00:54:14;13.00;88.10
72206;DHT22;60111;48.286;7.812;2023-08-30T00:56:46;13.00;88.10
72206;DHT22;60111;48.286;7.812;2023-08-30T00:59:19;13.00;87.80
72206;DHT22;60111;48.286;7.812;2023-08-30T01:01:51;13.00;87.40
72206;DHT22;60111;48.286;7.812;2023-08-30T01:04:24;13.00;87.40
72206;DHT22;60111;48.286;7.812;2023-08-30T01:06:56;13.00;87.70
72206;DHT22;60111;48.286;7.812;2023-08-30T01:09:28;13.00;88.10
72206;DHT22;60111;48.286;7.812;2023-08-30T01:17:07;12.90;88.00
72206;DHT22;60111;48.286;7.812;2023-08-30T01:25:09;12.90;88.70
72206;DHT22;60111;48.286;7.812;2023-08-30T01:27:39;12.90;89.20
72206;DHT22;60111;48.286;7.812;2023-08-30T01:30:11;13.00;89.20
72206;DHT22;60111;48.286;7.812;2023-08-30T01:32:44;13.00;88.90
72206;DHT22;60111;48.286;7.812;2023-08-30T01:35:17;13.00;88.60
72206;DHT22;60111;48.286;7.812;2023-08-30T01:37:50;13.00;88.30
72206;DHT22;60111;48.286;7.812;2023-08-30T01:40:23;13.00;88.20
72206;DHT22;60111;48.286;7.812;2023-08-30T01:42:55;13.10;87.40
72206;DHT22;60111;48.286;7.812;2023-08-30T01:45:27;13.00;87.20
72206;DHT22;60111;48.286;7.812;2023-08-30T01:48:00;13.00;87.80
72206;DHT22;60111;48.286;7.812;2023-08-30T01:50:32;12.90;88.40
72206;DHT22;60111;48.286;7.812;2023-08-30T01:53:04;13.00;89.10
72206;DHT22;60111;48.286;7.812;2023-08-30T01:55:37;13.10;89.20
72206;DHT22;60111;48.286;7.812;2023-08-30T01:58:09;13.10;89.30
72206;DHT22;60111;48.286;7.812;2023-08-30T02:00:41;13.10;89.20
72206;DHT22;60111;48.286;7.812;2023-08-30T02:03:13;13.10;88.90
72206;DHT22;60111;48.286;7.812;2023-08-30T02:05:52;13.20;88.90
72206;DHT22;60111;48.286;7.812;2023-08-30T02:08:21;13.10;89.00
72206;DHT22;60111;48.286;7.812;2023-08-30T02:11:05;13.20;89.20
72206;DHT22;60111;48.286;7.812;2023-08-30T02:13:56;13.10;89.40
72206;DHT22;60111;48.286;7.812;2023-08-30T02:16:28;13.10;88.70
72206;DHT22;60111;48.286;7.812;2023-08-30T02:19:00;13.10;88.40
72206;DHT22;60111;48.286;7.812;2023-08-30T02:21:32;13.00;88.40
72206;DHT22;60111;48.286;7.812;2023-08-30T02:24:04;12.90;88.10
72206;DHT22;60111;48.286;7.812;2023-08-30T02:26:36;12.90;88.00
72206;DHT22;60111;48.286;7.812;2023-08-30T02:29:08;12.90;88.60
72206;DHT22;60111;48.286;7.812;2023-08-30T02:31:40;12.90;89.00
72206;DHT22;60111;48.286;7.812;2023-08-30T02:34:12;12.90;89.10
72206;DHT22;60111;48.286;7.812;2023-08-30T02:36:44;12.90;88.70
72206;DHT22;60111;48.286;7.812;2023-08-30T02:39:16;12.80;88.70
72206;DHT22;60111;48.286;7.812;2023-08-30T02:41:48;12.80;88.30
72206;DHT22;60111;48.286;7.812;2023-08-30T02:44:20;12.70;88.60
72206;DHT22;60111;48.286;7.812;2023-08-30T02:46:52;12.70;89.10
72206;DHT22;60111;48.286;7.812;2023-08-30T02:49:24;12.70;89.50
72206;DHT22;60111;48.286;7.812;2023-08-30T02:51:56;12.80;89.80
72206;DHT22;60111;48.286;7.812;2023-08-30T02:54:28;12.80;89.80
72206;DHT22;60111;48.286;7.812;2023-08-30T02:57:00;12.90;89.60
72206;DHT22;60111;48.286;7.812;2023-08-30T02:59:32;12.90;89.50
72206;DHT22;60111;48.286;7.812;2023-08-30T03:02:04;13.00;89.30
72206;DHT22;60111;48.286;7.812;2023-08-30T03:04:36;13.00;89.10
72206;DHT22;60111;48.286;7.812;2023-08-30T03:07:09;13.00;89.10
72206;DHT22;60111;48.286;7.812;2023-08-30T03:09:41;13.00;89.20
72206;DHT22;60111;48.286;7.812;2023-08-30T03:12:13;13.00;89.10
72206;DHT22;60111;48.286;7.812;2023-08-30T03:14:45;13.00;89.20
72206;DHT22;60111;48.286;7.812;2023-08-30T03:17:16;13.00;89.10
72206;DHT22;60111;48.286;7.812;2023-08-30T03:19:50;13.00;88.90
72206;DHT22;60111;48.286;7.812;2023-08-30T03:22:22;13.00;88.80
72206;DHT22;60111;48.286;7.812;2023-08-30T03:24:54;13.00;88.50
72206;DHT22;60111;48.286;7.812;2023-08-30T03:27:25;13.00;88.40
72206;DHT22;60111;48.286;7.812;2023-08-30T03:29:57;12.90;88.40
72206;DHT22;60111;48.286;7.812;2023-08-30T03:32:29;12.90;88.60
72206;DHT22;60111;48.286;7.812;2023-08-30T03:35:03;12.90;88.80
72206;DHT22;60111;48.286;7.812;2023-08-30T03:37:35;12.90;88.70
72206;DHT22;60111;48.286;7.812;2023-08-30T03:40:07;13.00;88.60
72206;DHT22;60111;48.286;7.812;2023-08-30T03:42:40;13.00;88.50
72206;DHT22;60111;48.286;7.812;2023-08-30T03:45:12;12.90;88.40
72206;DHT22;60111;48.286;7.812;2023-08-30T03:47:44;13.10;87.30
72206;DHT22;60111;48.286;7.812;2023-08-30T03:50:15;13.10;86.90
72206;DHT22;60111;48.286;7.812;2023-08-30T03:52:47;13.00;87.20
72206;DHT22;60111;48.286;7.812;2023-08-30T03:55:19;12.90;87.70
72206;DHT22;60111;48.286;7.812;2023-08-30T03:57:52;12.90;88.30
72206;DHT22;60111;48.286;7.812;2023-08-30T04:00:24;13.00;88.60
72206;DHT22;60111;48.286;7.812;2023-08-30T04:02:55;12.90;88.70
72206;DHT22;60111;48.286;7.812;2023-08-30T04:05:31;13.00;88.50
72206;DHT22;60111;48.286;7.812;2023-08-30T04:08:04;12.90;88.80
72206;DHT22;60111;48.286;7.812;2023-08-30T04:10:40;13.00;88.20
72206;DHT22;60111;48.286;7.812;2023-08-30T04:13:13;12.90;88.30
72206;DHT22;60111;48.286;7.812;2023-08-30T04:15:46;12.90;88.50
72206;DHT22;60111;48.286;7.812;2023-08-30T04:18:17;12.90;88.00
72206;DHT22;60111;48.286;7.812;2023-08-30T04:20:49;12.90;88.30
72206;DHT22;60111;48.286;7.812;2023-08-30T04:23:21;12.90;88.20
72206;DHT22;60111;48.286;7.812;2023-08-30T04:25:53;12.90;87.70
72206;DHT22;60111;48.286;7.812;2023-08-30T04:28:25;12.90;88.10
72206;DHT22;60111;48.286;7.812;2023-08-30T04:30:57;12.90;88.80
72206;DHT22;60111;48.286;7.812;2023-08-30T04:33:29;12.90;88.90
72206;DHT22;60111;48.286;7.812;2023-08-30T04:36:01;12.90;88.90
72206;DHT22;60111;48.286;7.812;2023-08-30T04:38:34;12.90;89.00
72206;DHT22;60111;48.286;7.812;2023-08-30T04:41:06;13.00;89.00
72206;DHT22;60111;48.286;7.812;2023-08-30T04:43:38;13.00;89.10
72206;DHT22;60111;48.286;7.812;2023-08-30T04:46:10;13.00;88.70
72206;DHT22;60111;48.286;7.812;2023-08-30T04:48:42;13.00;88.10
72206;DHT22;60111;48.286;7.812;2023-08-30T04:51:14;13.00;88.70
72206;DHT22;60111;48.286;7.812;2023-08-30T04:53:45;13.00;88.90
72206;DHT22;60111;48.286;7.812;2023-08-30T04:56:17;13.00;88.80
72206;DHT22;60111;48.286;7.812;2023-08-30T04:58:49;13.00;88.70
72206;DHT22;60111;48.286;7.812;2023-08-30T05:01:22;13.00;88.40
72206;DHT22;60111;48.286;7.812;2023-08-30T05:03:54;13.10;88.20
72206;DHT22;60111;48.286;7.812;2023-08-30T05:06:26;13.10;88.20
72206;DHT22;60111;48.286;7.812;2023-08-30T05:08:58;13.10;88.20
72206;DHT22;60111;48.286;7.812;2023-08-30T05:11:29;13.10;88.20
72206;DHT22;60111;48.286;7.812;2023-08-30T05:14:01;13.10;87.90
72206;DHT22;60111;48.286;7.812;2023-08-30T05:16:33;13.10;88.00
72206;DHT22;60111;48.286;7.812;2023-08-30T05:19:05;13.20;88.30
72206;DHT22;60111;48.286;7.812;2023-08-30T05:21:37;13.20;88.50
72206;DHT22;60111;48.286;7.812;2023-08-30T05:24:09;13.20;88.30
72206;DHT22;60111;48.286;7.812;2023-08-30T05:26:41;13.30;88.10
72206;DHT22;60111;48.286;7.812;2023-08-30T05:29:13;13.30;87.80
72206;DHT22;60111;48.286;7.812;2023-08-30T05:31:46;13.30;87.50
72206;DHT22;60111;48.286;7.812;2023-08-30T05:34:18;13.30;87.10
72206;DHT22;60111;48.286;7.812;2023-08-30T05:36:49;13.30;87.00
72206;DHT22;60111;48.286;7.812;2023-08-30T05:39:21;13.40;86.70
72206;DHT22;60111;48.286;7.812;2023-08-30T05:41:53;13.40;86.60
72206;DHT22;60111;48.286;7.812;2023-08-30T05:44:25;13.30;86.50
72206;DHT22;60111;48.286;7.812;2023-08-30T05:46:57;13.30;86.90
72206;DHT22;60111;48.286;7.812;2023-08-30T05:49:29;13.30;86.90
72206;DHT22;60111;48.286;7.812;2023-08-30T05:52:00;13.30;87.00
72206;DHT22;60111;48.286;7.812;2023-08-30T05:54:33;13.30;87.30
72206;DHT22;60111;48.286;7.812;2023-08-30T05:57:04;13.30;87.30
72206;DHT22;60111;48.286;7.812;2023-08-30T05:59:36;13.40;87.10
72206;DHT22;60111;48.286;7.812;2023-08-30T06:02:08;13.40;87.40
72206;DHT22;60111;48.286;7.812;2023-08-30T06:04:41;13.50;87.50
72206;DHT22;60111;48.286;7.812;2023-08-30T06:07:13;13.50;87.40
72206;DHT22;60111;48.286;7.812;2023-08-30T06:09:44;13.50;87.50
72206;DHT22;60111;48.286;7.812;2023-08-30T06:12:16;13.60;87.20
72206;DHT22;60111;48.286;7.812;2023-08-30T06:14:48;13.60;87.20
72206;DHT22;60111;48.286;7.812;2023-08-30T06:17:22;13.70;86.20
72206;DHT22;60111;48.286;7.812;2023-08-30T06:19:54;13.70;86.50
72206;DHT22;60111;48.286;7.812;2023-08-30T06:22:26;13.70;86.80
72206;DHT22;60111;48.286;7.812;2023-08-30T06:24:58;13.70;86.80
72206;DHT22;60111;48.286;7.812;2023-08-30T06:27:29;13.70;86.50
72206;DHT22;60111;48.286;7.812;2023-08-30T06:30:01;13.80;86.50
72206;DHT22;60111;48.286;7.812;2023-08-30T06:32:34;13.80;85.70
72206;DHT22;60111;48.286;7.812;2023-08-30T06:35:06;13.80;86.10
72206;DHT22;60111;48.286;7.812;2023-08-30T06:37:39;13.90;86.10
72206;DHT22;60111;48.286;7.812;2023-08-30T06:40:11;13.90;86.30
72206;DHT22;60111;48.286;7.812;2023-08-30T06:45:36;14.00;85.70
72206;DHT22;60111;48.286;7.812;2023-08-30T06:48:09;14.00;85.70
72206;DHT22;60111;48.286;7.812;2023-08-30T06:50:40;14.00;85.60
72206;DHT22;60111;48.286;7.812;2023-08-30T06:53:12;14.10;85.70
72206;DHT22;60111;48.286;7.812;2023-08-30T06:55:44;14.20;85.50
72206;DHT22;60111;48.286;7.812;2023-08-30T06:58:16;14.20;86.10
72206;DHT22;60111;48.286;7.812;2023-08-30T07:00:48;14.30;85.60
72206;DHT22;60111;48.286;7.812;2023-08-30T07:03:20;14.40;84.80
72206;DHT22;60111;48.286;7.812;2023-08-30T07:05:51;14.50;84.00
72206;DHT22;60111;48.286;7.812;2023-08-30T07:08:23;14.50;84.20
72206;DHT22;60111;48.286;7.812;2023-08-30T07:10:55;14.60;84.50
72206;DHT22;60111;48.286;7.812;2023-08-30T07:13:27;14.60;84.90
72206;DHT22;60111;48.286;7.812;2023-08-30T07:15:59;14.60;84.90
72206;DHT22;60111;48.286;7.812;2023-08-30T07:18:31;14.70;84.90
72206;DHT22;60111;48.286;7.812;2023-08-30T07:21:03;14.80;84.70
72206;DHT22;60111;48.286;7.812;2023-08-30T07:23:35;14.90;84.00
72206;DHT22;60111;48.286;7.812;2023-08-30T07:26:07;14.90;83.70
72206;DHT22;60111;48.286;7.812;2023-08-30T07:28:38;15.00;82.60
72206;DHT22;60111;48.286;7.812;2023-08-30T07:31:10;15.10;82.10
72206;DHT22;60111;48.286;7.812;2023-08-30T07:33:44;15.10;81.70
72206;DHT22;60111;48.286;7.812;2023-08-30T07:36:16;15.20;81.30
72206;DHT22;60111;48.286;7.812;2023-08-30T07:38:48;15.20;80.90
72206;DHT22;60111;48.286;7.812;2023-08-30T07:41:20;15.30;80.90
72206;DHT22;60111;48.286;7.812;2023-08-30T07:43:51;15.40;80.40
72206;DHT22;60111;48.286;7.812;2023-08-30T07:46:23;15.50;79.70
72206;DHT22;60111;48.286;7.812;2023-08-30T07:48:56;15.60;78.80
72206;DHT22;60111;48.286;7.812;2023-08-30T07:51:28;15.50;79.70
72206;DHT22;60111;48.286;7.812;2023-08-30T07:54:00;15.60;78.80
72206;DHT22;60111;48.286;7.812;2023-08-30T07:56:32;15.60;78.30
72206;DHT22;60111;48.286;7.812;2023-08-30T07:59:03;15.70;78.10
72206;DHT22;60111;48.286;7.812;2023-08-30T08:01:35;15.80;77.90
72206;DHT22;60111;48.286;7.812;2023-08-30T08:04:07;15.90;76.50
72206;DHT22;60111;48.286;7.812;2023-08-30T08:06:39;15.90;77.40
72206;DHT22;60111;48.286;7.812;2023-08-30T08:09:11;15.90;76.50
72206;DHT22;60111;48.286;7.812;2023-08-30T08:11:43;15.90;76.80
72206;DHT22;60111;48.286;7.812;2023-08-30T08:14:14;15.90;76.60
72206;DHT22;60111;48.286;7.812;2023-08-30T08:16:46;15.90;76.70
72206;DHT22;60111;48.286;7.812;2023-08-30T08:19:18;16.00;76.20
72206;DHT22;60111;48.286;7.812;2023-08-30T08:21:51;16.10;76.20
72206;DHT22;60111;48.286;7.812;2023-08-30T08:24:24;16.20;76.60
72206;DHT22;60111;48.286;7.812;2023-08-30T08:26:56;16.30;77.10
72206;DHT22;60111;48.286;7.812;2023-08-30T08:29:28;16.50;74.90
72206;DHT22;60111;48.286;7.812;2023-08-30T08:32:00;16.60;75.30
72206;DHT22;60111;48.286;7.812;2023-08-30T08:34:32;16.70;74.20
72206;DHT22;60111;48.286;7.812;2023-08-30T08:37:04;16.70;74.00
72206;DHT22;60111;48.286;7.812;2023-08-30T08:39:35;16.80;72.50
72206;DHT22;60111;48.286;7.812;2023-08-30T08:42:07;16.90;73.30
72206;DHT22;60111;48.286;7.812;2023-08-30T08:44:39;16.90;73.20
72206;DHT22;60111;48.286;7.812;2023-08-30T08:47:12;17.00;72.50
72206;DHT22;60111;48.286;7.812;2023-08-30T08:49:44;17.00;72.80
72206;DHT22;60111;48.286;7.812;2023-08-30T08:52:16;17.10;73.70
72206;DHT22;60111;48.286;7.812;2023-08-30T08:54:48;17.30;72.50
72206;DHT22;60111;48.286;7.812;2023-08-30T08:57:20;17.30;72.80
72206;DHT22;60111;48.286;7.812;2023-08-30T08:59:54;17.40;71.60
72206;DHT22;60111;48.286;7.812;2023-08-30T09:02:25;17.50;72.00
72206;DHT22;60111;48.286;7.812;2023-08-30T09:04:59;17.50;71.70
72206;DHT22;60111;48.286;7.812;2023-08-30T09:07:32;17.60;70.00
72206;DHT22;60111;48.286;7.812;2023-08-30T09:10:04;17.60;71.20
72206;DHT22;60111;48.286;7.812;2023-08-30T09:12:36;17.60;71.30
72206;DHT22;60111;48.286;7.812;2023-08-30T09:15:08;17.80;71.60
72206;DHT22;60111;48.286;7.812;2023-08-30T09:17:40;17.80;70.60
72206;DHT22;60111;48.286;7.812;2023-08-30T09:20:13;17.90;71.20
72206;DHT22;60111;48.286;7.812;2023-08-30T09:22:45;18.00;72.20
72206;DHT22;60111;48.286;7.812;2023-08-30T09:25:24;18.20;70.00
72206;DHT22;60111;48.286;7.812;2023-08-30T09:27:57;18.30;70.40
72206;DHT22;60111;48.286;7.812;2023-08-30T09:30:30;18.30;68.90
72206;DHT22;60111;48.286;7.812;2023-08-30T09:33:03;18.30;69.00
72206;DHT22;60111;48.286;7.812;2023-08-30T09:35:44;18.40;70.00
72206;DHT22;60111;48.286;7.812;2023-08-30T09:38:17;18.50;69.50
72206;DHT22;60111;48.286;7.812;2023-08-30T09:40:49;18.60;69.40
72206;DHT22;60111;48.286;7.812;2023-08-30T09:43:21;18.70;69.40
72206;DHT22;60111;48.286;7.812;2023-08-30T09:45:54;18.80;68.60
72206;DHT22;60111;48.286;7.812;2023-08-30T09:48:29;19.00;67.00
72206;DHT22;60111;48.286;7.812;2023-08-30T09:51:01;19.10;67.00
72206;DHT22;60111;48.286;7.812;2023-08-30T09:53:37;19.10;66.80
72206;DHT22;60111;48.286;7.812;2023-08-30T09:56:10;19.10;67.10
72206;DHT22;60111;48.286;7.812;2023-08-30T09:58:42;19.10;66.00
72206;DHT22;60111;48.286;7.812;2023-08-30T10:01:15;19.20;65.60
72206;DHT22;60111;48.286;7.812;2023-08-30T10:03:47;19.30;65.30
72206;DHT22;60111;48.286;7.812;2023-08-30T10:06:28;19.40;65.70
72206;DHT22;60111;48.286;7.812;2023-08-30T10:09:01;19.40;67.20
72206;DHT22;60111;48.286;7.812;2023-08-30T10:11:35;19.60;64.50
72206;DHT22;60111;48.286;7.812;2023-08-30T10:14:07;19.60;65.70
72206;DHT22;60111;48.286;7.812;2023-08-30T10:16:45;19.80;64.30
72206;DHT22;60111;48.286;7.812;2023-08-30T10:19:27;19.90;65.30
72206;DHT22;60111;48.286;7.812;2023-08-30T10:21:57;20.10;64.80
72206;DHT22;60111;48.286;7.812;2023-08-30T10:24:24;20.10;63.60
72206;DHT22;60111;48.286;7.812;2023-08-30T10:26:57;19.80;63.40
72206;DHT22;60111;48.286;7.812;2023-08-30T10:29:35;19.80;64.70
72206;DHT22;60111;48.286;7.812;2023-08-30T10:32:08;20.00;64.70
72206;DHT22;60111;48.286;7.812;2023-08-30T10:34:40;20.10;64.80
72206;DHT22;60111;48.286;7.812;2023-08-30T10:37:12;20.20;64.00
72206;DHT22;60111;48.286;7.812;2023-08-30T10:39:47;20.20;63.00
72206;DHT22;60111;48.286;7.812;2023-08-30T10:42:21;20.30;63.10
72206;DHT22;60111;48.286;7.812;2023-08-30T10:44:57;20.40;64.90
72206;DHT22;60111;48.286;7.812;2023-08-30T10:47:36;20.70;61.00
72206;DHT22;60111;48.286;7.812;2023-08-30T10:50:09;20.80;59.00
72206;DHT22;60111;48.286;7.812;2023-08-30T10:52:41;20.90;61.20
72206;DHT22;60111;48.286;7.812;2023-08-30T10:55:14;21.20;60.30
72206;DHT22;60111;48.286;7.812;2023-08-30T10:57:46;21.30;60.60
72206;DHT22;60111;48.286;7.812;2023-08-30T11:00:22;21.30;59.60
72206;DHT22;60111;48.286;7.812;2023-08-30T11:02:54;21.30;59.60
72206;DHT22;60111;48.286;7.812;2023-08-30T11:05:26;21.30;56.60
72206;DHT22;60111;48.286;7.812;2023-08-30T11:07:58;21.10;56.00
72206;DHT22;60111;48.286;7.812;2023-08-30T11:10:30;21.10;59.10
72206;DHT22;60111;48.286;7.812;2023-08-30T11:13:02;21.10;56.80
72206;DHT22;60111;48.286;7.812;2023-08-30T11:15:34;21.20;57.40
72206;DHT22;60111;48.286;7.812;2023-08-30T11:18:06;21.30;55.70
72206;DHT22;60111;48.286;7.812;2023-08-30T11:20:38;21.30;55.70
72206;DHT22;60111;48.286;7.812;2023-08-30T11:23:10;21.30;55.20
72206;DHT22;60111;48.286;7.812;2023-08-30T11:25:42;21.30;56.90
72206;DHT22;60111;48.286;7.812;2023-08-30T11:28:20;21.20;55.60
72206;DHT22;60111;48.286;7.812;2023-08-30T11:30:47;21.20;56.30
72206;DHT22;60111;48.286;7.812;2023-08-30T11:33:19;21.20;52.90
72206;DHT22;60111;48.286;7.812;2023-08-30T11:35:51;21.20;52.70
72206;DHT22;60111;48.286;7.812;2023-08-30T11:38:23;21.10;53.60
72206;DHT22;60111;48.286;7.812;2023-08-30T11:40:55;21.00;54.70
72206;DHT22;60111;48.286;7.812;2023-08-30T11:43:28;21.00;56.60
72206;DHT22;60111;48.286;7.812;2023-08-30T11:46:00;20.80;56.00
72206;DHT22;60111;48.286;7.812;2023-08-30T11:48:32;20.60;56.90
72206;DHT22;60111;48.286;7.812;2023-08-30T11:51:04;20.40;57.30
72206;DHT22;60111;48.286;7.812;2023-08-30T11:53:36;20.20;57.90
72206;DHT22;60111;48.286;7.812;2023-08-30T11:56:08;20.10;58.00
72206;DHT22;60111;48.286;7.812;2023-08-30T11:58:40;20.20;58.60
72206;DHT22;60111;48.286;7.812;2023-08-30T12:01:13;20.20;60.10
72206;DHT22;60111;48.286;7.812;2023-08-30T12:03:45;20.50;60.60
72206;DHT22;60111;48.286;7.812;2023-08-30T12:06:22;20.80;58.20
72206;DHT22;60111;48.286;7.812;2023-08-30T12:08:58;21.10;60.20
72206;DHT22;60111;48.286;7.812;2023-08-30T12:11:31;21.40;57.50
72206;DHT22;60111;48.286;7.812;2023-08-30T12:14:03;21.60;56.90
72206;DHT22;60111;48.286;7.812;2023-08-30T12:16:35;21.70;56.90
72206;DHT22;60111;48.286;7.812;2023-08-30T12:19:08;21.70;54.20
72206;DHT22;60111;48.286;7.812;2023-08-30T12:21:44;21.60;54.70
72206;DHT22;60111;48.286;7.812;2023-08-30T12:24:16;21.70;55.90
72206;DHT22;60111;48.286;7.812;2023-08-30T12:26:48;21.80;54.00
72206;DHT22;60111;48.286;7.812;2023-08-30T12:29:20;21.70;54.60
72206;DHT22;60111;48.286;7.812;2023-08-30T12:31:52;21.80;56.20
72206;DHT22;60111;48.286;7.812;2023-08-30T12:34:24;21.90;55.80
72206;DHT22;60111;48.286;7.812;2023-08-30T12:36:56;22.00;53.80
72206;DHT22;60111;48.286;7.812;2023-08-30T12:39:28;22.00;55.20
72206;DHT22;60111;48.286;7.812;2023-08-30T12:42:00;22.00;54.70
72206;DHT22;60111;48.286;7.812;2023-08-30T12:44:31;22.00;53.40
72206;DHT22;60111;48.286;7.812;2023-08-30T12:47:04;22.10;56.00
72206;DHT22;60111;48.286;7.812;2023-08-30T12:49:36;22.10;53.80
72206;DHT22;60111;48.286;7.812;2023-08-30T12:52:07;22.00;52.80
72206;DHT22;60111;48.286;7.812;2023-08-30T12:54:39;22.20;54.50
72206;DHT22;60111;48.286;7.812;2023-08-30T12:57:11;22.20;50.80
72206;DHT22;60111;48.286;7.812;2023-08-30T12:59:43;22.20;52.80
72206;DHT22;60111;48.286;7.812;2023-08-30T13:02:15;22.20;51.40
72206;DHT22;60111;48.286;7.812;2023-08-30T13:04:47;22.20;49.40
72206;DHT22;60111;48.286;7.812;2023-08-30T13:07:20;22.20;52.10
72206;DHT22;60111;48.286;7.812;2023-08-30T13:09:52;22.40;52.40
72206;DHT22;60111;48.286;7.812;2023-08-30T13:12:24;22.40;51.20
72206;DHT22;60111;48.286;7.812;2023-08-30T13:14:56;22.50;50.10
72206;DHT22;60111;48.286;7.812;2023-08-30T13:17:29;22.30;48.20
72206;DHT22;60111;48.286;7.812;2023-08-30T13:20:00;22.00;48.70
72206;DHT22;60111;48.286;7.812;2023-08-30T13:22:32;22.00;49.30
72206;DHT22;60111;48.286;7.812;2023-08-30T13:25:05;22.10;50.40
72206;DHT22;60111;48.286;7.812;2023-08-30T13:27:37;22.30;49.30
72206;DHT22;60111;48.286;7.812;2023-08-30T13:30:09;22.20;48.10
72206;DHT22;60111;48.286;7.812;2023-08-30T13:32:41;22.10;51.20
72206;DHT22;60111;48.286;7.812;2023-08-30T13:35:13;22.20;50.50
72206;DHT22;60111;48.286;7.812;2023-08-30T13:37:45;22.40;49.20
72206;DHT22;60111;48.286;7.812;2023-08-30T13:40:16;22.40;50.40
72206;DHT22;60111;48.286;7.812;2023-08-30T13:42:48;22.30;48.40
72206;DHT22;60111;48.286;7.812;2023-08-30T13:45:20;22.20;49.90
72206;DHT22;60111;48.286;7.812;2023-08-30T13:47:52;22.20;51.30
72206;DHT22;60111;48.286;7.812;2023-08-30T13:50:25;22.40;50.90
72206;DHT22;60111;48.286;7.812;2023-08-30T13:52:59;22.50;51.50
72206;DHT22;60111;48.286;7.812;2023-08-30T13:55:31;22.50;48.30
72206;DHT22;60111;48.286;7.812;2023-08-30T13:58:04;22.40;49.20
72206;DHT22;60111;48.286;7.812;2023-08-30T14:00:35;22.30;50.10
72206;DHT22;60111;48.286;7.812;2023-08-30T14:03:07;22.20;51.10
72206;DHT22;60111;48.286;7.812;2023-08-30T14:05:40;22.40;50.70
72206;DHT22;60111;48.286;7.812;2023-08-30T14:08:12;22.50;49.40
72206;DHT22;60111;48.286;7.812;2023-08-30T14:10:44;22.50;49.00
72206;DHT22;60111;48.286;7.812;2023-08-30T14:13:15;22.20;49.30
72206;DHT22;60111;48.286;7.812;2023-08-30T14:15:47;22.00;49.80
72206;DHT22;60111;48.286;7.812;2023-08-30T14:18:19;22.00;52.10
72206;DHT22;60111;48.286;7.812;2023-08-30T14:20:54;22.20;50.50
72206;DHT22;60111;48.286;7.812;2023-08-30T14:23:25;22.40;50.30
72206;DHT22;60111;48.286;7.812;2023-08-30T14:26:05;22.70;52.20
72206;DHT22;60111;48.286;7.812;2023-08-30T14:28:35;22.90;48.80
72206;DHT22;60111;48.286;7.812;2023-08-30T14:31:08;22.90;48.40
72206;DHT22;60111;48.286;7.812;2023-08-30T14:33:42;22.80;47.80
72206;DHT22;60111;48.286;7.812;2023-08-30T14:36:13;22.60;48.40
72206;DHT22;60111;48.286;7.812;2023-08-30T14:38:46;22.30;49.00
72206;DHT22;60111;48.286;7.812;2023-08-30T14:41:18;22.30;48.80
72206;DHT22;60111;48.286;7.812;2023-08-30T14:43:50;22.50;48.90
72206;DHT22;60111;48.286;7.812;2023-08-30T14:46:22;22.60;49.70
72206;DHT22;60111;48.286;7.812;2023-08-30T14:48:54;22.80;48.70
72206;DHT22;60111;48.286;7.812;2023-08-30T14:51:26;22.60;48.80
72206;DHT22;60111;48.286;7.812;2023-08-30T14:53:58;22.60;48.00
72206;DHT22;60111;48.286;7.812;2023-08-30T14:56:29;22.70;49.00
72206;DHT22;60111;48.286;7.812;2023-08-30T14:59:01;22.70;48.40
72206;DHT22;60111;48.286;7.812;2023-08-30T15:01:33;22.60;48.10
72206;DHT22;60111;48.286;7.812;2023-08-30T15:04:05;22.60;49.00
72206;DHT22;60111;48.286;7.812;2023-08-30T15:06:37;22.70;50.30
72206;DHT22;60111;48.286;7.812;2023-08-30T15:09:10;22.80;50.60
72206;DHT22;60111;48.286;7.812;2023-08-30T15:11:43;23.00;50.70
72206;DHT22;60111;48.286;7.812;2023-08-30T15:14:15;23.10;48.90
72206;DHT22;60111;48.286;7.812;2023-08-30T15:16:47;23.00;47.70
72206;DHT22;60111;48.286;7.812;2023-08-30T15:19:18;23.10;48.10
72206;DHT22;60111;48.286;7.812;2023-08-30T15:21:50;23.10;48.10
72206;DHT22;60111;48.286;7.812;2023-08-30T15:24:22;23.00;47.70
72206;DHT22;60111;48.286;7.812;2023-08-30T15:26:54;22.90;47.50
72206;DHT22;60111;48.286;7.812;2023-08-30T15:29:26;22.90;48.30
72206;DHT22;60111;48.286;7.812;2023-08-30T15:31:58;23.00;49.60
72206;DHT22;60111;48.286;7.812;2023-08-30T15:34:30;23.00;48.50
72206;DHT22;60111;48.286;7.812;2023-08-30T15:37:02;23.00;47.30
72206;DHT22;60111;48.286;7.812;2023-08-30T15:39:34;23.00;47.40
72206;DHT22;60111;48.286;7.812;2023-08-30T15:42:06;22.90;48.30
72206;DHT22;60111;48.286;7.812;2023-08-30T15:44:38;23.00;47.60
72206;DHT22;60111;48.286;7.812;2023-08-30T15:47:10;22.90;48.60
72206;DHT22;60111;48.286;7.812;2023-08-30T15:49:42;23.00;48.30
72206;DHT22;60111;48.286;7.812;2023-08-30T15:52:14;23.10;49.00
72206;DHT22;60111;48.286;7.812;2023-08-30T15:54:46;23.20;47.70
72206;DHT22;60111;48.286;7.812;2023-08-30T15:57:18;23.20;48.10
72206;DHT22;60111;48.286;7.812;2023-08-30T15:59:50;23.10;48.20
72206;DHT22;60111;48.286;7.812;2023-08-30T16:02:22;23.00;48.20
72206;DHT22;60111;48.286;7.812;2023-08-30T16:04:54;23.00;47.10
72206;DHT22;60111;48.286;7.812;2023-08-30T16:07:26;22.90;48.80
72206;DHT22;60111;48.286;7.812;2023-08-30T16:09:58;22.90;48.00
72206;DHT22;60111;48.286;7.812;2023-08-30T16:12:30;23.00;48.20
72206;DHT22;60111;48.286;7.812;2023-08-30T16:15:01;22.90;48.40